Time;durP1;ratioP1;P1;durP2;ratioP2;P2;SDS_P1;SDS_P2;PMS_P1;PMS_P2;Temp;Humidity;BMP_temperature;BMP_pressure;BME280_temperature;BME280_humidity;BME280_pressure;Samples;Min_cycle;Max_cycle;Signal;HPM_P1;HPM_P2
2022/12/22 03:26:37;;;;;;;147.23;74.97;;;;;;;1.51;63.57;94798.69;4157301;28;20144;-71
2022/12/22 03:28:39;;;;;;;141.60;75.28;;;;;;;1.52;63.14;94790.00;4152564;28;20145;-72
2022/12/22 03:30:41;;;;;;;134.43;71.13;;;;;;;1.43;63.50;94792.25;4166602;28;20461;-69
2022/12/22 03:32:42;;;;;;;134.52;73.10;;;;;;;1.45;64.14;94791.34;4172258;28;20053;-73
2022/12/22 03:34:44;;;;;;;145.98;73.50;;;;;;;1.51;63.50;94793.53;4169604;28;20105;-72
2022/12/22 03:36:46;;;;;;;132.27;72.38;;;;;;;1.47;63.94;94795.47;4171103;28;20512;-72
2022/12/22 03:38:47;;;;;;;139.73;76.63;;;;;;;1.42;63.76;94798.38;4159696;28;20575;-71
2022/12/22 03:40:49;;;;;;;154.40;80.45;;;;;;;1.42;64.18;94794.97;4169091;28;20128;-73
2022/12/22 03:47:31;;;;;;;130.20;72.90;;;;;;;1.37;64.11;94807.31;4167039;28;20136;-71
2022/12/22 03:49:33;;;;;;;135.38;74.72;;;;;;;1.39;63.68;94797.72;4151501;28;20127;-71
2022/12/22 03:51:37;;;;;;;142.75;74.28;;;;;;;1.32;63.37;94801.66;4168011;28;20056;-72
2022/12/22 03:53:38;;;;;;;142.65;72.22;;;;;;;1.25;63.88;94806.38;4158699;28;20061;-71
2022/12/22 03:55:40;;;;;;;113.30;64.78;;;;;;;1.08;63.63;94804.91;4170309;28;20102;-73
2022/12/22 03:57:41;;;;;;;119.78;60.83;;;;;;;0.91;64.21;94800.81;4154208;28;20264;-72
2022/12/22 03:59:44;;;;;;;129.80;67.97;;;;;;;0.98;64.59;94802.06;4150252;28;20411;-70
2022/12/22 04:01:51;;;;;;;122.47;66.30;;;;;;;1.07;64.31;94800.66;4155255;28;20535;-72
2022/12/22 04:03:54;;;;;;;115.97;65.47;;;;;;;1.10;64.14;94794.47;4153330;28;20142;-71
2022/12/22 04:05:57;;;;;;;126.83;69.70;;;;;;;1.10;64.14;94799.63;4159208;28;20104;-72
2022/12/22 04:07:59;;;;;;;124.87;67.40;;;;;;;1.13;64.35;94789.13;4157786;28;20482;-72
2022/12/22 04:14:41;;;;;;;130.48;66.57;;;;;;;1.32;63.89;94793.91;4144956;28;20060;-69
2022/12/22 04:16:43;;;;;;;121.15;67.03;;;;;;;1.41;63.82;94794.13;4170569;28;20057;-72
2022/12/22 04:18:46;;;;;;;118.35;64.15;;;;;;;1.42;63.41;94794.97;4168082;28;20087;-70
2022/12/22 04:20:48;;;;;;;123.65;68.05;;;;;;;1.46;63.48;94788.63;4168547;28;20080;-72
2022/12/22 04:22:50;;;;;;;117.88;65.35;;;;;;;1.45;62.91;94791.34;4169115;28;20092;-72
2022/12/22 04:24:51;;;;;;;116.88;66.25;;;;;;;1.43;63.29;94794.84;4171397;28;20057;-70
2022/12/22 04:26:53;;;;;;;122.35;65.82;;;;;;;1.46;63.58;94785.25;4168983;28;20064;-69
2022/12/22 04:28:58;;;;;;;118.80;64.80;;;;;;;1.43;63.29;94788.84;4168467;28;20057;-74
2022/12/22 04:31:00;;;;;;;122.38;62.67;;;;;;;1.43;63.43;94791.44;4153712;28;20537;-72
2022/12/22 04:33:01;;;;;;;116.18;61.67;;;;;;;1.34;63.26;94786.91;4165785;28;20061;-71
2022/12/22 04:35:04;;;;;;;122.90;64.70;;;;;;;1.22;62.81;94789.31;4161816;28;20064;-73
2022/12/22 04:37:05;;;;;;;109.32;60.67;;;;;;;1.02;63.88;94792.38;4160501;28;20096;-73
2022/12/22 04:39:18;;;;;;;119.32;63.42;;;;;;;0.86;64.65;94799.44;4155776;28;20057;-72
2022/12/22 04:41:20;;;;;;;122.63;65.43;;;;;;;0.87;64.91;94795.97;4167962;28;20499;-74
2022/12/22 04:43:22;;;;;;;117.72;63.72;;;;;;;0.97;65.25;94799.63;4169393;28;20075;-71
2022/12/22 04:45:23;;;;;;;115.75;63.53;;;;;;;1.07;64.87;94792.91;4169372;28;20095;-72
2022/12/22 04:47:25;;;;;;;136.23;68.47;;;;;;;1.14;64.76;94788.19;4167551;28;20166;-72
2022/12/22 04:49:27;;;;;;;121.32;68.30;;;;;;;1.16;64.60;94794.91;4152092;28;20077;-70
2022/12/22 04:51:28;;;;;;;124.35;69.68;;;;;;;1.17;64.75;94796.56;4169381;28;20061;-72
2022/12/22 04:53:31;;;;;;;130.75;67.80;;;;;;;1.26;64.59;94787.38;4168557;28;20064;-71
2022/12/22 04:55:32;;;;;;;121.28;65.68;;;;;;;1.25;64.67;94790.06;4146101;28;20061;-72
2022/12/22 04:57:34;;;;;;;129.63;66.78;;;;;;;1.27;64.65;94788.19;4146387;28;20279;-72
2022/12/22 04:59:41;;;;;;;123.13;65.20;;;;;;;1.28;64.61;94782.94;4175848;28;20465;-72
2022/12/22 05:01:43;;;;;;;114.93;65.20;;;;;;;1.33;64.35;94778.31;4157052;28;20087;-74
2022/12/22 05:03:45;;;;;;;118.28;64.88;;;;;;;1.30;64.69;94780.28;4178029;28;20539;-72
2022/12/22 05:05:47;;;;;;;127.35;67.65;;;;;;;1.33;64.75;94780.88;4172474;28;20513;-73
2022/12/22 05:07:49;;;;;;;123.07;65.78;;;;;;;1.35;64.57;94783.38;4169172;28;20107;-70
2022/12/22 05:09:51;;;;;;;123.18;65.22;;;;;;;1.40;64.43;94776.16;4161272;28;20049;-71
2022/12/22 05:11:52;;;;;;;117.47;65.00;;;;;;;1.43;64.58;94783.69;4164475;28;20059;-73
2022/12/22 05:13:54;;;;;;;112.80;65.63;;;;;;;1.49;64.09;94788.47;4163068;28;20062;-73
2022/12/22 05:16:06;;;;;;;121.85;65.63;;;;;;;1.55;64.25;94792.38;4173814;28;20072;-73
2022/12/22 05:18:08;;;;;;;106.15;59.60;;;;;;;1.60;64.14;94796.31;4174333;28;20160;-72
2022/12/22 05:20:10;;;;;;;102.28;58.40;;;;;;;1.61;63.81;94787.66;4144213;28;20092;-72
2022/12/22 05:22:11;;;;;;;109.20;59.95;;;;;;;1.60;64.18;94798.88;4169112;28;20060;-73
2022/12/22 05:24:13;;;;;;;103.75;58.25;;;;;;;1.60;64.31;94803.25;4157175;28;20127;-73
2022/12/22 05:26:16;;;;;;;104.72;56.67;;;;;;;1.56;64.22;94801.78;4158697;28;20104;-72
2022/12/22 05:28:18;;;;;;;101.53;54.72;;;;;;;1.61;64.71;94807.47;4152518;28;20045;-73
2022/12/22 05:30:19;;;;;;;102.78;55.17;;;;;;;1.61;64.08;94808.31;4146598;28;20124;-71
2022/12/22 05:32:21;;;;;;;104.82;58.03;;;;;;;1.64;64.33;94804.69;4133318;28;20065;-74
2022/12/22 05:34:23;;;;;;;113.90;58.75;;;;;;;1.64;63.93;94802.94;4147126;28;20065;-71
2022/12/22 05:36:24;;;;;;;107.28;58.78;;;;;;;1.62;64.04;94804.78;4142318;28;20424;-73
2022/12/22 05:38:26;;;;;;;106.10;58.80;;;;;;;1.63;63.84;94803.88;4140470;28;20081;-72
2022/12/22 05:40:29;;;;;;;120.43;59.80;;;;;;;1.59;63.90;94805.00;4147310;28;20057;-73
2022/12/22 05:42:49;;;;;;;115.82;60.05;;;;;;;1.56;64.33;94800.03;4141786;28;20064;-74
2022/12/22 05:44:51;;;;;;;112.65;61.08;;;;;;;1.57;63.85;94796.53;4148217;28;20154;-72
2022/12/22 05:46:52;;;;;;;115.53;63.58;;;;;;;1.51;64.22;94793.53;4156463;28;20422;-73
2022/12/22 05:48:54;;;;;;;109.95;60.22;;;;;;;1.50;64.28;94789.28;4153578;28;20507;-73
2022/12/22 05:50:56;;;;;;;111.55;59.20;;;;;;;1.55;64.51;94798.38;4154113;28;20257;-73
2022/12/22 05:52:58;;;;;;;106.75;59.58;;;;;;;1.56;64.40;94801.78;4153765;28;20281;-72
2022/12/22 05:55:00;;;;;;;110.90;60.35;;;;;;;1.56;64.01;94792.28;4154217;28;20339;-73
2022/12/22 05:57:01;;;;;;;99.78;57.88;;;;;;;1.51;64.49;94793.53;4155929;28;20064;-74
2022/12/22 05:59:03;;;;;;;112.88;61.63;;;;;;;1.52;64.43;94796.00;4147061;28;20062;-73
2022/12/22 06:01:05;;;;;;;109.15;59.78;;;;;;;1.58;64.47;94799.94;4155147;28;20057;-72
2022/12/22 06:03:07;;;;;;;112.22;60.63;;;;;;;1.58;64.04;94802.50;4153545;28;20060;-72
2022/12/22 06:05:10;;;;;;;101.97;57.10;;;;;;;1.62;63.99;94799.63;4155983;28;20444;-73
2022/12/22 06:07:12;;;;;;;115.85;61.63;;;;;;;1.61;63.80;94800.56;4153540;28;20493;-73
2022/12/22 06:09:14;;;;;;;118.85;61.88;;;;;;;1.57;63.85;94801.69;4144166;28;20127;-73
2022/12/22 06:11:17;;;;;;;113.75;59.42;;;;;;;1.47;64.11;94800.63;4154295;28;20053;-73
2022/12/22 06:13:19;;;;;;;120.15;63.67;;;;;;;1.46;64.63;94795.56;4155535;28;20219;-73
2022/12/22 06:15:20;;;;;;;116.82;59.67;;;;;;;1.46;64.77;94798.97;4154712;28;20057;-73
2022/12/22 06:17:22;;;;;;;126.72;65.70;;;;;;;1.52;64.43;94803.72;4133610;28;20054;-72
2022/12/22 06:19:24;;;;;;;113.90;62.58;;;;;;;1.52;64.74;94801.16;4149238;28;20082;-72
2022/12/22 06:21:25;;;;;;;116.28;63.80;;;;;;;1.61;64.28;94799.72;4121981;28;20077;-71
2022/12/22 06:23:27;;;;;;;116.72;64.68;;;;;;;1.58;63.97;94805.91;4152218;28;20053;-75
2022/12/22 06:25:29;;;;;;;114.97;61.67;;;;;;;1.59;63.91;94807.59;4139855;28;20142;-75
2022/12/22 06:27:31;;;;;;;111.97;62.22;;;;;;;1.64;63.81;94807.28;4155531;28;20456;-73
2022/12/22 06:29:33;;;;;;;118.63;57.92;;;;;;;1.62;64.04;94807.38;4168338;28;20057;-75
2022/12/22 06:31:34;;;;;;;103.63;59.08;;;;;;;1.76;63.61;94803.03;4166346;28;20108;-74
2022/12/22 06:33:36;;;;;;;108.82;58.78;;;;;;;2.24;62.41;94806.63;4143028;28;20524;-75
2022/12/22 06:35:38;;;;;;;106.32;58.05;;;;;;;2.77;60.84;94808.13;4159320;28;20892;-74
2022/12/22 06:37:40;;;;;;;104.90;56.50;;;;;;;3.25;59.34;94806.38;4156137;28;20060;-77
2022/12/22 06:39:41;;;;;;;95.97;52.67;;;;;;;3.60;58.32;94808.13;4166388;28;20484;-75
2022/12/22 06:44:03;;;;;;;97.82;53.83;;;;;;;3.66;56.95;94812.84;4169035;28;20151;-71
2022/12/22 06:46:05;;;;;;;103.65;53.97;;;;;;;3.51;57.78;94811.41;4167950;28;20063;-73
2022/12/22 06:48:10;;;;;;;103.15;56.40;;;;;;;3.36;58.09;94810.78;4148337;28;20057;-73
2022/12/22 06:50:11;;;;;;;103.28;54.95;;;;;;;3.25;58.65;94816.72;4171092;28;20060;-72
2022/12/22 06:52:13;;;;;;;117.30;56.30;;;;;;;3.14;59.11;94815.84;4169976;28;20512;-72
2022/12/22 06:54:15;;;;;;;110.82;56.83;;;;;;;3.07;59.45;94824.03;4165614;28;20397;-73
2022/12/22 06:56:24;;;;;;;104.20;54.47;;;;;;;2.96;59.33;94824.00;4169985;28;20072;-73
2022/12/22 06:58:26;;;;;;;97.53;53.88;;;;;;;2.94;59.60;94817.28;4167081;28;20095;-72
2022/12/22 07:00:27;;;;;;;107.25;52.95;;;;;;;2.86;59.98;94826.44;4164948;28;20049;-73
2022/12/22 07:02:30;;;;;;;99.63;51.90;;;;;;;2.81;60.77;94820.75;4146275;28;20053;-73
2022/12/22 07:04:32;;;;;;;117.80;59.05;;;;;;;2.40;60.80;94821.88;4164316;28;20060;-74
2022/12/22 07:06:35;;;;;;;106.85;57.10;;;;;;;2.10;61.05;94824.81;4161544;28;20299;-71
2022/12/22 07:08:36;;;;;;;120.18;59.17;;;;;;;1.18;63.90;94826.59;4169363;28;20057;-72
2022/12/22 07:10:57;;;;;;;109.80;57.80;;;;;;;0.67;66.09;94834.16;4164572;28;20056;-75
2022/12/22 07:13:17;;;;;;;116.13;57.55;;;;;;;0.52;67.35;94833.34;4161028;28;20412;-74
2022/12/22 07:15:20;;;;;;;111.45;58.00;;;;;;;0.67;67.12;94834.16;4168101;28;20119;-74
2022/12/22 07:17:21;;;;;;;146.90;83.63;;;;;;;0.99;68.12;94833.84;4165952;28;20103;-72
2022/12/22 07:19:23;;;;;;;136.20;70.13;;;;;;;1.29;68.46;94825.91;4166401;28;20760;-74
2022/12/22 07:21:25;;;;;;;125.03;63.55;;;;;;;1.55;65.38;94823.34;4168216;28;20116;-73
2022/12/22 07:23:27;;;;;;;115.28;60.70;;;;;;;1.75;64.29;94822.88;4166624;28;20053;-73
2022/12/22 07:25:28;;;;;;;119.93;62.38;;;;;;;1.93;63.52;94815.63;4163288;28;20057;-73
2022/12/22 07:27:30;;;;;;;122.95;61.22;;;;;;;2.04;63.01;94818.34;4162666;28;20053;-70
2022/12/22 07:29:31;;;;;;;119.95;61.78;;;;;;;2.18;62.74;94813.97;4169191;28;20480;-74
2022/12/22 07:31:33;;;;;;;109.10;58.00;;;;;;;2.36;62.21;94810.09;4169553;28;20099;-72
2022/12/22 07:33:35;;;;;;;112.22;58.92;;;;;;;2.53;62.91;94811.50;4163154;28;20133;-74
2022/12/22 07:35:37;;;;;;;125.43;63.25;;;;;;;2.64;62.57;94815.94;4165414;28;20455;-73
2022/12/22 07:37:39;;;;;;;131.23;60.70;;;;;;;2.60;61.71;94815.34;4168545;28;20053;-73
2022/12/22 07:39:40;;;;;;;116.05;62.75;;;;;;;2.52;61.48;94817.63;4151470;28;20088;-72
2022/12/22 07:44:04;;;;;;;105.80;56.05;;;;;;;2.81;61.77;94819.91;4168884;28;20056;-72
2022/12/22 07:46:06;;;;;;;117.47;60.72;;;;;;;2.90;60.99;94821.03;4169316;28;20149;-73
2022/12/22 07:50:23;;;;;;;126.68;63.10;;;;;;;3.02;60.93;94818.38;4165303;28;20123;-74
2022/12/22 07:50:31;;;;;;;112.75;58.72;;;;;;;3.17;61.00;94826.81;4164568;28;20053;-73
2022/12/22 07:52:32;;;;;;;113.88;58.95;;;;;;;3.27;60.04;94825.22;4168842;28;20045;-75
2022/12/22 07:55:21;;;;;;;111.10;59.53;;;;;;;3.35;59.89;94826.41;4161909;28;20101;-74
2022/12/22 07:57:25;;;;;;;99.15;57.70;;;;;;;3.48;59.87;94817.66;4157667;28;20054;-72
2022/12/22 07:59:26;;;;;;;119.95;60.45;;;;;;;3.60;59.54;94817.66;4134220;28;20555;-72
2022/12/22 08:01:28;;;;;;;107.15;59.08;;;;;;;3.68;58.86;94808.38;4166320;28;20057;-73
2022/12/22 08:03:30;;;;;;;108.03;57.50;;;;;;;3.79;59.81;94806.75;4167591;28;20050;-74
2022/12/22 08:05:32;;;;;;;138.88;70.10;;;;;;;3.88;58.97;94809.47;4168750;28;20194;-71
2022/12/22 08:07:34;;;;;;;117.22;63.45;;;;;;;3.95;58.75;94811.59;4169129;28;20057;-74
2022/12/22 08:09:36;;;;;;;108.00;55.85;;;;;;;3.98;58.44;94804.44;4155121;28;20069;-74
2022/12/22 08:11:39;;;;;;;117.75;58.90;;;;;;;3.99;58.40;94808.66;4162138;28;20410;-72
2022/12/22 08:13:42;;;;;;;119.47;60.47;;;;;;;4.09;58.50;94811.41;4163709;28;20063;-74
2022/12/22 08:15:44;;;;;;;117.85;60.92;;;;;;;4.15;58.15;94807.50;4157072;28;20377;-74
2022/12/22 08:17:45;;;;;;;102.18;57.42;;;;;;;4.19;57.86;94811.50;4165543;28;20057;-74
2022/12/22 08:19:47;;;;;;;115.45;57.45;;;;;;;4.19;57.74;94803.72;4160415;28;20101;-70
2022/12/22 08:21:50;;;;;;;103.90;56.60;;;;;;;4.29;58.44;94799.50;4156915;28;20045;-74
2022/12/22 08:23:54;;;;;;;117.32;59.15;;;;;;;4.38;57.42;94798.75;4162187;28;20468;-73
2022/12/22 08:26:00;;;;;;;112.28;59.25;;;;;;;4.44;57.53;94795.69;4166894;28;20315;-73
2022/12/22 08:28:02;;;;;;;108.53;58.15;;;;;;;4.39;57.18;94803.03;4165455;28;20057;-71
2022/12/22 08:30:06;;;;;;;107.15;56.22;;;;;;;4.31;57.07;94801.00;4143363;28;20489;-75
2022/12/22 08:32:09;;;;;;;113.45;58.38;;;;;;;4.31;57.32;94807.97;4154252;28;20061;-76
2022/12/22 08:34:16;;;;;;;111.15;57.63;;;;;;;4.06;57.44;94807.25;4176254;28;20049;-75
2022/12/22 08:36:18;;;;;;;108.85;60.83;;;;;;;3.99;57.87;94813.03;4148559;28;20127;-73
2022/12/22 08:38:20;;;;;;;104.78;55.92;;;;;;;4.02;58.57;94805.84;4146499;28;20137;-76
2022/12/22 08:40:25;;;;;;;108.95;58.17;;;;;;;3.74;58.37;94796.72;4148263;28;20061;-74
2022/12/22 08:42:27;;;;;;;105.68;54.53;;;;;;;3.87;57.73;94801.81;4154843;28;20049;-74
2022/12/22 08:44:52;;;;;;;104.90;55.35;;;;;;;3.85;57.22;94799.34;4156250;28;20674;-71
2022/12/22 08:53:30;;;;;;;120.60;52.67;;;;;;;4.45;57.34;94784.41;3910674;28;20048;-73
2022/12/22 08:55:53;;;;;;;92.57;52.25;;;;;;;4.66;56.16;94784.47;4161188;28;20348;-72
2022/12/22 08:57:55;;;;;;;96.22;53.08;;;;;;;4.75;55.30;94782.91;4145614;28;20084;-73
2022/12/22 10:26:56;;;;;;;94.50;51.97;;;;;;;5.83;51.83;94672.78;4163406;28;20116;-73
2022/12/22 10:29:02;;;;;;;99.82;55.83;;;;;;;6.05;51.71;94670.03;4156363;28;20159;-74
2022/12/22 10:31:19;;;;;;;98.90;53.63;;;;;;;6.12;51.58;94676.34;4170402;28;20067;-74
2022/12/22 10:33:21;;;;;;;97.45;54.60;;;;;;;6.22;51.58;94671.19;4153293;28;20099;-74
2022/12/22 10:35:23;;;;;;;94.68;54.45;;;;;;;6.38;50.35;94672.44;4170940;28;20558;-72
2022/12/22 10:37:43;;;;;;;101.63;54.92;;;;;;;6.45;50.49;94666.56;4178672;28;20053;-74
2022/12/22 10:39:45;;;;;;;98.00;56.08;;;;;;;6.52;49.97;94654.66;4155372;28;20127;-70
2022/12/22 10:41:48;;;;;;;107.32;56.83;;;;;;;6.80;49.77;94652.22;4167469;28;20482;-73
2022/12/22 10:43:55;;;;;;;90.50;53.90;;;;;;;7.11;49.08;94646.84;4158384;28;20139;-73
2022/12/22 10:45:57;;;;;;;105.15;56.72;;;;;;;7.32;48.97;94647.50;4175249;28;20617;-72
2022/12/22 10:47:59;;;;;;;103.97;55.88;;;;;;;7.37;47.99;94644.47;4176340;28;20140;-74
2022/12/22 10:50:01;;;;;;;95.00;54.97;;;;;;;7.20;49.15;94640.78;4148761;28;20400;-72
2022/12/22 10:52:14;;;;;;;89.30;52.80;;;;;;;7.24;48.74;94642.16;4163155;28;20057;-73
2022/12/22 10:54:33;;;;;;;102.15;51.75;;;;;;;7.38;48.35;94648.72;4129242;28;20129;-74
2022/12/22 10:56:34;;;;;;;90.20;53.63;;;;;;;7.49;48.11;94638.13;4161518;28;20057;-72
2022/12/22 10:58:56;;;;;;;99.82;53.08;;;;;;;7.22;48.67;94638.06;4159770;28;20053;-70
2022/12/22 11:01:03;;;;;;;91.93;52.85;;;;;;;7.27;48.35;94639.28;4153683;28;20061;-74
2022/12/22 11:03:06;;;;;;;83.00;52.58;;;;;;;7.45;48.03;94633.34;4176394;28;20075;-73
2022/12/22 11:05:09;;;;;;;99.78;56.08;;;;;;;7.50;47.87;94629.34;4174768;28;20056;-73
2022/12/22 11:07:11;;;;;;;107.70;54.83;;;;;;;7.05;48.63;94622.16;4173879;28;20053;-73
2022/12/22 11:09:13;;;;;;;98.68;54.65;;;;;;;7.00;49.81;94621.78;4171590;28;20402;-76
2022/12/22 11:11:58;;;;;;;98.97;52.88;;;;;;;7.16;49.40;94629.00;4168170;28;20053;-72
2022/12/22 11:14:06;;;;;;;95.78;54.70;;;;;;;7.22;49.60;94622.44;4142728;28;20057;-76
2022/12/22 11:16:30;;;;;;;97.40;51.25;;;;;;;7.44;49.10;94618.66;4165778;28;20143;-73
2022/12/22 11:19:05;;;;;;;90.32;52.97;;;;;;;7.72;48.03;94609.94;4165997;28;20053;-72
2022/12/22 11:21:21;;;;;;;95.57;54.63;;;;;;;8.05;47.53;94612.13;4147936;28;20061;-73
2022/12/22 11:24:03;;;;;;;96.82;53.67;;;;;;;8.05;47.18;94601.69;4169801;28;20049;-72
2022/12/22 11:26:31;;;;;;;87.68;52.63;;;;;;;7.72;47.79;94606.47;4118123;28;20066;-72
2022/12/22 11:28:44;;;;;;;93.72;52.47;;;;;;;7.49;48.70;94608.66;4103812;28;20062;-73
2022/12/22 11:31:07;;;;;;;93.70;53.13;;;;;;;7.46;48.44;94611.53;4130939;28;20057;-73
2022/12/22 11:33:24;;;;;;;93.57;53.00;;;;;;;7.29;48.48;94602.66;4174934;28;20061;-74
2022/12/22 11:35:58;;;;;;;83.30;50.17;;;;;;;7.21;48.88;94602.56;4152871;28;20123;-73
2022/12/22 11:38:06;;;;;;;83.30;50.55;;;;;;;7.30;48.95;94599.91;4163311;28;20053;-73
2022/12/22 11:40:23;;;;;;;90.80;51.40;;;;;;;7.61;48.45;94604.06;4163424;28;20151;-73
2022/12/22 11:42:43;;;;;;;90.20;51.35;;;;;;;7.95;48.52;94599.09;4160732;28;20054;-73
2022/12/22 11:45:23;;;;;;;83.35;46.42;;;;;;;8.27;47.96;94595.22;4167311;28;20233;-74
2022/12/22 11:47:46;;;;;;;83.20;48.67;;;;;;;8.55;46.81;94593.41;4174124;28;20049;-72
2022/12/22 11:50:25;;;;;;;83.03;47.67;;;;;;;8.59;47.18;94592.94;4176110;28;20121;-74
2022/12/22 11:53:14;;;;;;;74.90;46.30;;;;;;;8.15;47.32;94592.81;4173790;28;20135;-73
2022/12/22 11:55:23;;;;;;;73.97;46.83;;;;;;;8.14;47.30;94593.78;4177456;28;20057;-73
2022/12/22 11:57:36;;;;;;;78.32;47.40;;;;;;;8.17;47.36;94585.69;4147439;28;20050;-72
2022/12/22 12:00:02;;;;;;;90.10;47.08;;;;;;;8.32;47.25;94583.34;4174107;28;20053;-72
2022/12/22 12:02:23;;;;;;;76.03;46.03;;;;;;;8.32;46.33;94585.16;4175233;28;20068;-73
2022/12/22 12:04:37;;;;;;;85.50;47.28;;;;;;;8.52;46.78;94584.09;4174139;28;20052;-74
2022/12/22 12:06:58;;;;;;;82.63;45.42;;;;;;;8.69;46.43;94581.59;4145248;28;20057;-74
2022/12/22 12:09:05;;;;;;;78.32;46.15;;;;;;;8.71;45.92;94580.50;4161675;28;20045;-72
2022/12/22 12:11:30;;;;;;;77.65;46.75;;;;;;;8.64;46.15;94579.44;4171510;28;20119;-73
2022/12/22 12:13:53;;;;;;;77.90;46.17;;;;;;;8.69;46.49;94571.16;4180631;28;20045;-73
2022/12/22 12:16:05;;;;;;;78.03;47.45;;;;;;;8.75;45.21;94560.91;4146388;28;20057;-74
2022/12/22 12:18:58;;;;;;;77.05;44.63;;;;;;;8.92;45.91;94561.06;4160973;28;20226;-71
2022/12/22 12:21:28;;;;;;;78.00;46.75;;;;;;;8.98;45.04;94566.50;4123182;28;20052;-72
2022/12/22 12:23:42;;;;;;;75.55;46.17;;;;;;;9.07;45.59;94562.16;4168770;28;20056;-74
2022/12/22 12:26:00;;;;;;;81.65;51.13;;;;;;;8.96;45.75;94563.22;4174343;28;20057;-72
2022/12/22 12:28:33;;;;;;;84.30;49.10;;;;;;;8.87;45.44;94563.31;4183775;28;20057;-73
2022/12/22 12:30:59;;;;;;;81.10;50.70;;;;;;;8.95;45.44;94561.59;4139347;28;20049;-76
2022/12/22 12:33:07;;;;;;;84.28;48.88;;;;;;;8.94;45.37;94556.50;4157450;28;20524;-70
2022/12/22 12:35:27;;;;;;;88.35;50.42;;;;;;;9.06;44.55;94557.09;4183019;28;20071;-73
2022/12/22 12:37:34;;;;;;;87.97;53.50;;;;;;;8.81;45.40;94557.72;4185016;28;20052;-75
2022/12/22 12:39:38;;;;;;;96.47;56.03;;;;;;;8.79;45.90;94558.84;4159946;28;20076;-76
2022/12/22 12:41:48;;;;;;;92.82;53.60;;;;;;;8.76;45.77;94556.53;4179577;28;20338;-76
2022/12/22 12:43:52;;;;;;;95.35;55.25;;;;;;;8.77;45.92;94558.16;4171923;28;20422;-76
2022/12/22 12:45:54;;;;;;;104.28;55.75;;;;;;;8.77;46.74;94552.94;4168612;28;20538;-74
2022/12/22 12:48:24;;;;;;;91.63;53.20;;;;;;;8.61;46.26;94549.22;4154603;28;20138;-74
2022/12/22 12:50:32;;;;;;;86.18;50.97;;;;;;;8.39;47.22;94547.06;4176092;28;20053;-76
2022/12/22 12:53:02;;;;;;;92.72;54.28;;;;;;;8.40;46.47;94543.47;4170414;28;20111;-75
2022/12/22 12:55:19;;;;;;;88.78;53.20;;;;;;;8.45;46.99;94549.09;4181128;28;20071;-73
2022/12/22 12:57:29;;;;;;;94.30;53.90;;;;;;;8.55;46.04;94549.03;4174304;28;20066;-74
2022/12/22 12:59:39;;;;;;;105.32;55.00;;;;;;;8.68;46.36;94544.22;4161016;28;20057;-75
2022/12/22 13:01:41;;;;;;;96.10;54.80;;;;;;;8.77;46.54;94548.53;4178324;28;20232;-75
2022/12/22 13:03:45;;;;;;;92.97;52.97;;;;;;;8.82;45.70;94545.50;4176353;28;20120;-74
2022/12/22 13:06:07;;;;;;;91.13;53.30;;;;;;;8.79;46.11;94546.59;4175075;28;20064;-76
2022/12/22 13:08:26;;;;;;;80.93;49.88;;;;;;;8.59;46.55;94543.34;4178641;28;20423;-75
2022/12/22 13:10:27;;;;;;;95.68;51.40;;;;;;;8.54;46.52;94549.97;4165308;28;20469;-72
2022/12/22 13:12:38;;;;;;;95.95;52.78;;;;;;;8.46;47.20;94544.72;4169175;28;20096;-73
2022/12/22 13:14:56;;;;;;;85.30;51.33;;;;;;;8.39;47.18;94541.84;4166260;28;20045;-73
2022/12/22 13:17:33;;;;;;;92.25;53.90;;;;;;;8.43;47.28;94545.00;4155977;28;20056;-75
2022/12/22 13:19:35;;;;;;;95.18;53.22;;;;;;;8.48;47.01;94543.59;4169924;28;20064;-73
2022/12/22 13:21:40;;;;;;;99.43;54.38;;;;;;;8.55;46.63;94544.59;4156155;28;20049;-73
2022/12/22 13:23:54;;;;;;;98.00;52.33;;;;;;;8.60;46.10;94536.31;4159814;28;20433;-73
2022/12/22 13:26:18;;;;;;;88.32;53.92;;;;;;;8.67;46.81;94541.75;4161875;28;20105;-74
2022/12/22 13:28:22;;;;;;;90.95;52.85;;;;;;;8.55;46.60;94539.38;4173010;28;20065;-74
2022/12/22 13:30:25;;;;;;;94.30;54.85;;;;;;;8.57;46.96;94537.44;4168573;28;20053;-71
2022/12/22 13:32:34;;;;;;;108.28;53.63;;;;;;;8.59;46.78;94540.72;4167424;28;20045;-74
2022/12/22 13:34:45;;;;;;;95.07;52.67;;;;;;;8.57;46.55;94540.06;4172629;28;20057;-72
2022/12/22 13:37:16;;;;;;;102.18;55.17;;;;;;;8.48;47.28;94542.75;4158506;28;20078;-75
2022/12/22 13:39:18;;;;;;;94.93;54.22;;;;;;;8.39;48.02;94534.81;4167581;28;20227;-75
2022/12/22 13:41:21;;;;;;;94.78;53.53;;;;;;;8.39;47.80;94539.22;4145546;28;20061;-73
2022/12/22 13:43:31;;;;;;;85.88;53.67;;;;;;;8.37;47.83;94535.94;4165841;28;20141;-74
2022/12/22 13:45:37;;;;;;;87.75;50.13;;;;;;;8.37;47.52;94530.72;4148858;28;20603;-76
2022/12/22 13:47:41;;;;;;;89.80;50.70;;;;;;;8.32;47.67;94528.53;4167142;28;20103;-75
2022/12/22 13:49:43;;;;;;;91.70;50.85;;;;;;;8.38;48.08;94527.13;4167351;28;20106;-76
2022/12/22 13:52:05;;;;;;;89.03;51.80;;;;;;;8.29;48.50;94522.81;4163136;28;20088;-73
2022/12/22 13:54:25;;;;;;;91.70;51.90;;;;;;;8.34;48.10;94528.41;4166657;28;20532;-75
2022/12/22 13:56:36;;;;;;;88.05;51.72;;;;;;;8.37;47.61;94535.94;4159098;28;20050;-74
2022/12/22 13:58:40;;;;;;;94.85;54.63;;;;;;;8.35;48.31;94530.88;4136787;28;20112;-72
2022/12/22 14:00:41;;;;;;;93.75;52.92;;;;;;;8.37;47.85;94528.13;4167156;28;20231;-74
2022/12/22 14:02:44;;;;;;;92.13;53.67;;;;;;;8.36;48.19;94526.47;4167509;28;20064;-74
2022/12/22 14:05:07;;;;;;;89.65;53.53;;;;;;;8.44;47.59;94521.34;4178659;28;20056;-76
2022/12/22 14:07:18;;;;;;;92.63;52.80;;;;;;;8.52;48.29;94518.00;4177330;28;20435;-73
2022/12/22 14:09:21;;;;;;;89.53;50.75;;;;;;;8.61;48.76;94517.09;4178127;28;20094;-75
2022/12/22 14:11:22;;;;;;;96.00;53.38;;;;;;;8.63;48.06;94519.56;4158169;28;20046;-73
2022/12/22 14:13:28;;;;;;;109.82;57.67;;;;;;;8.49;48.15;94513.88;4170477;28;20053;-73
2022/12/22 14:15:30;;;;;;;104.03;57.88;;;;;;;8.50;48.57;94514.72;4152389;28;20575;-74
2022/12/22 14:17:35;;;;;;;103.53;56.28;;;;;;;8.49;48.91;94513.06;4163444;28;20463;-75
2022/12/22 14:19:37;;;;;;;102.75;56.78;;;;;;;8.36;48.68;94513.41;4148421;28;20053;-75
2022/12/22 14:21:41;;;;;;;96.60;54.58;;;;;;;8.30;48.81;94514.84;4147637;28;20425;-77
2022/12/22 14:23:43;;;;;;;98.57;54.50;;;;;;;8.22;49.89;94520.00;4152376;28;20054;-76
2022/12/22 14:25:46;;;;;;;94.75;55.50;;;;;;;8.23;49.91;94518.19;4173328;28;20061;-75
2022/12/22 14:27:51;;;;;;;93.80;53.83;;;;;;;8.20;50.59;94514.91;4137286;28;20458;-77
2022/12/22 14:29:53;;;;;;;93.35;50.83;;;;;;;8.18;49.88;94518.66;4158980;28;20081;-72
2022/12/22 14:31:58;;;;;;;86.95;49.60;;;;;;;8.15;50.34;94521.53;4172381;28;20303;-75
2022/12/22 14:34:04;;;;;;;81.75;46.85;;;;;;;8.07;50.29;94522.28;4150031;28;20057;-76
2022/12/22 14:36:19;;;;;;;84.35;48.97;;;;;;;8.08;50.99;94516.09;4163254;28;20053;-73
2022/12/22 14:38:23;;;;;;;89.00;47.03;;;;;;;8.08;50.65;94518.69;4173562;28;20060;-75
2022/12/22 14:40:31;;;;;;;84.75;48.17;;;;;;;8.07;51.22;94524.91;4157844;28;20061;-74
2022/12/22 14:42:33;;;;;;;77.82;45.17;;;;;;;8.00;50.64;94522.06;4155979;28;20049;-76
2022/12/22 14:44:41;;;;;;;85.13;46.20;;;;;;;7.90;50.92;94515.28;4158017;28;20339;-74
2022/12/22 14:46:44;;;;;;;77.97;46.50;;;;;;;7.91;51.42;94515.09;4174254;28;20051;-74
2022/12/22 14:48:47;;;;;;;81.57;45.30;;;;;;;7.90;51.64;94518.69;4143204;28;20065;-75
2022/12/22 14:50:50;;;;;;;81.47;46.75;;;;;;;7.86;51.71;94517.34;4171624;28;20408;-76
2022/12/22 14:52:55;;;;;;;78.20;45.20;;;;;;;7.84;52.10;94521.06;4170131;28;20480;-75
2022/12/22 14:54:56;;;;;;;93.05;46.13;;;;;;;7.83;52.05;94527.25;4143310;28;20104;-73
2022/12/22 14:57:10;;;;;;;81.70;45.67;;;;;;;7.78;52.20;94528.50;4176431;28;20061;-75
2022/12/22 14:59:23;;;;;;;87.13;48.53;;;;;;;7.78;52.13;94525.88;4177487;28;20049;-77
2022/12/22 15:01:29;;;;;;;95.05;48.30;;;;;;;7.75;51.95;94523.59;4179148;28;20049;-74
2022/12/22 15:03:36;;;;;;;81.38;47.05;;;;;;;7.75;51.87;94534.00;4177453;28;20596;-74